createdAt,value
2022-12-31T00:02:13.244Z,13.45
2022-12-31T00:04:42.984Z,13.57
2022-12-31T00:07:11.203Z,13.05
2022-12-31T00:09:39.299Z,13.40
2022-12-31T00:12:08.007Z,12.80
2022-12-31T00:14:36.589Z,12.75
2022-12-31T00:17:04.774Z,12.88
2022-12-31T00:19:32.983Z,13.45
2022-12-31T00:22:02.433Z,13.48
2022-12-31T00:24:31.176Z,12.10
2022-12-31T00:26:59.368Z,12.35
2022-12-31T00:29:27.392Z,12.40
2022-12-31T00:31:55.550Z,12.60
2022-12-31T00:34:23.841Z,12.48
2022-12-31T00:36:51.858Z,11.80
2022-12-31T00:39:21.387Z,12.63
2022-12-31T00:41:49.575Z,11.73
2022-12-31T00:44:17.621Z,11.82
2022-12-31T00:49:13.134Z,12.13
2022-12-31T00:51:41.449Z,12.30
2022-12-31T00:54:10.134Z,11.85
2022-12-31T00:56:39.710Z,12.45
2022-12-31T00:59:07.843Z,12.60
2022-12-31T01:01:39.008Z,11.68
2022-12-31T01:04:09.973Z,11.10
2022-12-31T01:06:38.705Z,12.15
2022-12-31T01:09:07.542Z,11.48
2022-12-31T01:11:36.250Z,11.85
2022-12-31T01:14:07.769Z,12.02
2022-12-31T01:16:38.688Z,11.23
2022-12-31T01:19:08.626Z,11.00
2022-12-31T01:21:38.626Z,10.88
2022-12-31T01:24:08.706Z,11.10
2022-12-31T01:26:37.433Z,11.23
2022-12-31T01:29:08.097Z,12.23
2022-12-31T01:31:37.661Z,11.27
2022-12-31T01:34:06.027Z,10.95
2022-12-31T01:36:35.827Z,11.70
2022-12-31T01:39:06.531Z,10.68
2022-12-31T01:41:37.260Z,11.07
2022-12-31T01:44:38.397Z,11.25
2022-12-31T01:47:15.169Z,10.57
2022-12-31T01:49:48.432Z,10.25
2022-12-31T01:54:51.242Z,10.75
2022-12-31T01:57:20.232Z,10.13
2022-12-31T01:59:48.432Z,10.48
2022-12-31T02:02:18.345Z,9.98
2022-12-31T02:04:47.437Z,10.13
2022-12-31T02:07:15.804Z,9.50
2022-12-31T02:09:45.864Z,10.20
2022-12-31T02:12:14.154Z,10.13
2022-12-31T02:14:45.048Z,10.75
2022-12-31T02:17:26.756Z,9.93
2022-12-31T02:20:20.715Z,9.75
2022-12-31T02:23:19.024Z,10.05
2022-12-31T02:26:08.482Z,9.88
2022-12-31T02:28:54.817Z,10.13
2022-12-31T02:31:32.073Z,9.60
2022-12-31T02:34:07.514Z,9.60
2022-12-31T02:36:39.064Z,9.93
2022-12-31T02:39:08.715Z,9.38
2022-12-31T02:41:52.265Z,9.48
2022-12-31T02:47:03.977Z,9.40
2022-12-31T02:49:41.259Z,9.77
2022-12-31T02:52:16.770Z,9.32
2022-12-31T02:54:52.477Z,9.38
2022-12-31T02:57:27.539Z,9.40
2022-12-31T03:00:17.771Z,10.05
2022-12-31T03:02:49.277Z,9.48
2022-12-31T03:05:19.909Z,9.55
2022-12-31T03:07:48.012Z,9.45
2022-12-31T03:10:17.239Z,9.52
2022-12-31T03:12:47.997Z,8.90
2022-12-31T03:15:22.571Z,9.18
2022-12-31T03:17:56.135Z,9.13
2022-12-31T03:20:45.600Z,8.77
2022-12-31T03:23:16.681Z,9.23
2022-12-31T03:25:43.919Z,9.98
2022-12-31T03:28:14.241Z,9.07
2022-12-31T03:30:45.072Z,9.07
2022-12-31T03:33:14.945Z,10.23
2022-12-31T03:35:44.438Z,9.48
2022-12-31T03:38:13.007Z,9.20
2022-12-31T03:40:45.050Z,9.73
2022-12-31T03:43:13.408Z,9.50
2022-12-31T03:45:41.560Z,9.50
2022-12-31T03:48:10.915Z,9.30
2022-12-31T03:50:40.411Z,9.88
2022-12-31T03:53:08.530Z,9.20
2022-12-31T03:55:36.947Z,9.35
2022-12-31T03:58:05.113Z,9.27
2022-12-31T04:00:33.213Z,9.48
2022-12-31T04:03:01.530Z,9.35
2022-12-31T04:05:29.721Z,9.13
2022-12-31T04:07:59.197Z,9.88
2022-12-31T04:10:28.119Z,9.57
2022-12-31T04:12:56.439Z,8.90
2022-12-31T04:15:24.495Z,9.27
2022-12-31T04:17:57.628Z,8.52
2022-12-31T04:20:26.117Z,9.75
2022-12-31T04:22:54.416Z,8.88
2022-12-31T04:25:23.937Z,9.27
2022-12-31T04:27:52.099Z,8.77
2022-12-31T04:30:20.249Z,9.35
2022-12-31T04:32:48.391Z,9.05
2022-12-31T04:35:16.624Z,9.10
2022-12-31T04:37:44.758Z,8.88
2022-12-31T04:40:13.411Z,9.13
2022-12-31T04:42:42.904Z,8.95
2022-12-31T04:45:11.544Z,8.38
2022-12-31T04:47:40.112Z,9.07
2022-12-31T04:50:08.927Z,8.15
2022-12-31T04:52:42.749Z,8.75
2022-12-31T04:55:11.905Z,8.90
2022-12-31T04:57:40.165Z,8.75
2022-12-31T05:00:11.341Z,8.45
2022-12-31T05:02:39.897Z,8.73
2022-12-31T05:05:08.791Z,8.25
2022-12-31T05:07:36.950Z,8.27
2022-12-31T05:10:06.213Z,8.45
2022-12-31T05:12:34.433Z,8.20
2022-12-31T05:15:02.568Z,9.20
2022-12-31T05:17:32.087Z,8.43
2022-12-31T05:20:00.470Z,8.23
2022-12-31T05:22:31.240Z,8.75
2022-12-31T05:25:00.516Z,8.25
2022-12-31T05:27:31.279Z,8.50
2022-12-31T05:29:59.795Z,8.65
2022-12-31T05:32:27.899Z,8.35
2022-12-31T05:34:57.556Z,8.32
2022-12-31T05:37:25.661Z,8.93
2022-12-31T05:39:53.836Z,8.75
2022-12-31T05:42:22.214Z,8.40
2022-12-31T05:44:50.443Z,8.63
2022-12-31T05:47:18.628Z,8.27
2022-12-31T05:49:46.780Z,8.38
2022-12-31T05:52:16.507Z,9.38
2022-12-31T05:54:44.725Z,8.68
2022-12-31T05:57:12.915Z,9.50
2022-12-31T05:59:41.171Z,9.05
2022-12-31T06:02:09.234Z,8.55
2022-12-31T06:04:37.396Z,8.25
2022-12-31T06:07:05.715Z,8.18
2022-12-31T06:09:35.156Z,9.50
2022-12-31T06:12:03.261Z,8.73
2022-12-31T06:14:31.379Z,9.07
2022-12-31T06:16:59.602Z,9.38
2022-12-31T06:19:27.997Z,8.32
2022-12-31T06:21:56.099Z,8.80
2022-12-31T06:24:24.227Z,9.13
2022-12-31T06:26:53.744Z,9.77
2022-12-31T06:29:21.824Z,9.35
2022-12-31T06:31:49.934Z,8.85
2022-12-31T06:34:18.399Z,9.77
2022-12-31T06:36:46.562Z,8.93
2022-12-31T06:39:14.641Z,9.10
2022-12-31T06:41:43.463Z,9.00
2022-12-31T06:44:12.967Z,9.00
2022-12-31T06:46:41.082Z,9.20
2022-12-31T06:49:09.277Z,8.15
2022-12-31T06:51:37.964Z,8.90
2022-12-31T06:54:06.155Z,9.20
2022-12-31T06:56:35.141Z,9.10
2022-12-31T06:59:04.292Z,8.98
2022-12-31T07:01:44.458Z,9.30
2022-12-31T07:04:39.508Z,9.60
2022-12-31T07:07:12.185Z,8.85
2022-12-31T07:09:51.208Z,8.80
2022-12-31T07:12:31.719Z,9.00
2022-12-31T07:15:05.559Z,9.50
2022-12-31T07:17:42.716Z,9.18
2022-12-31T07:20:13.534Z,9.13
2022-12-31T07:22:42.332Z,9.68
2022-12-31T07:25:15.077Z,8.75
2022-12-31T07:28:00.125Z,9.20
2022-12-31T07:30:37.333Z,8.20
2022-12-31T07:33:34.177Z,9.20
2022-12-31T07:36:15.284Z,9.38
2022-12-31T07:38:51.423Z,9.32
2022-12-31T07:41:32.591Z,9.40
2022-12-31T07:44:06.314Z,9.52
2022-12-31T07:46:41.991Z,9.18
2022-12-31T07:49:14.485Z,9.60
2022-12-31T07:51:43.459Z,9.15
2022-12-31T07:54:14.121Z,9.73
2022-12-31T07:56:43.257Z,9.82
2022-12-31T07:59:24.512Z,10.50
2022-12-31T08:02:00.836Z,10.02
2022-12-31T08:04:40.210Z,9.05
2022-12-31T08:07:29.728Z,9.27
2022-12-31T08:10:12.648Z,9.10
2022-12-31T08:12:48.093Z,9.40
2022-12-31T08:15:18.548Z,9.75
2022-12-31T08:17:47.481Z,9.30
2022-12-31T08:20:18.534Z,9.95
2022-12-31T08:23:15.420Z,9.63
2022-12-31T08:25:58.485Z,9.73
2022-12-31T08:31:05.047Z,9.07
2022-12-31T08:33:41.591Z,8.75
2022-12-31T08:36:20.169Z,9.13
2022-12-31T08:38:56.161Z,9.40
2022-12-31T08:41:31.059Z,9.35
2022-12-31T08:44:11.574Z,10.02
2022-12-31T08:46:47.258Z,9.70
2022-12-31T08:49:16.150Z,9.48
2022-12-31T08:51:46.832Z,10.18
2022-12-31T08:54:15.476Z,10.55
2022-12-31T08:56:50.722Z,10.77
2022-12-31T08:59:30.941Z,9.95
2022-12-31T09:02:20.086Z,9.82
2022-12-31T09:05:01.813Z,9.68
2022-12-31T09:07:37.406Z,10.50
2022-12-31T09:10:17.041Z,11.07
2022-12-31T09:12:59.917Z,10.57
2022-12-31T09:15:34.914Z,10.75
2022-12-31T09:18:03.645Z,10.27
2022-12-31T09:20:42.907Z,9.45
2022-12-31T09:23:14.372Z,10.18
2022-12-31T09:25:52.247Z,10.23
2022-12-31T09:28:34.531Z,10.32
2022-12-31T09:31:07.022Z,10.45
2022-12-31T09:33:43.745Z,10.27
2022-12-31T09:36:19.989Z,10.80
2022-12-31T09:38:57.888Z,9.80
2022-12-31T09:41:59.008Z,9.80
2022-12-31T09:45:08.004Z,10.30
2022-12-31T09:48:07.634Z,10.82
2022-12-31T09:50:57.625Z,10.75
2022-12-31T09:53:39.697Z,10.30
2022-12-31T09:56:16.917Z,10.55
2022-12-31T09:58:54.868Z,10.35
2022-12-31T10:01:32.158Z,10.05
2022-12-31T10:04:34.857Z,10.73
2022-12-31T10:07:19.631Z,10.75
2022-12-31T10:09:59.341Z,10.55
2022-12-31T10:13:09.552Z,10.65
2022-12-31T10:16:03.275Z,11.02
2022-12-31T10:18:52.100Z,10.55
2022-12-31T10:21:38.949Z,10.77
2022-12-31T10:24:24.691Z,10.10
2022-12-31T10:27:05.763Z,10.57
2022-12-31T10:29:46.566Z,10.77
2022-12-31T10:32:19.384Z,11.25
2022-12-31T10:35:12.875Z,10.20
2022-12-31T10:40:24.982Z,10.65
2022-12-31T10:43:47.298Z,10.20
2022-12-31T10:46:41.251Z,10.10
2022-12-31T10:49:49.168Z,10.65
2022-12-31T10:52:48.904Z,10.77
2022-12-31T10:56:09.533Z,10.85
2022-12-31T10:58:55.106Z,10.88
2022-12-31T11:01:34.469Z,10.82
2022-12-31T11:04:32.407Z,10.98
2022-12-31T11:07:38.258Z,11.73
2022-12-31T11:10:42.549Z,10.73
2022-12-31T11:13:41.252Z,11.15
2022-12-31T11:16:25.237Z,10.73
2022-12-31T11:19:03.061Z,11.55
2022-12-31T11:21:47.133Z,11.88
2022-12-31T11:24:28.133Z,12.63
2022-12-31T11:27:08.940Z,11.38
2022-12-31T11:29:49.721Z,11.57
2022-12-31T11:32:33.254Z,10.95
2022-12-31T11:35:19.268Z,11.55
2022-12-31T11:37:50.338Z,11.93
2022-12-31T11:40:42.020Z,11.95
2022-12-31T11:43:23.453Z,11.77
2022-12-31T11:46:33.417Z,11.48
2022-12-31T11:49:20.563Z,12.07
2022-12-31T11:52:21.808Z,11.80
2022-12-31T11:55:04.888Z,12.73
2022-12-31T11:57:36.047Z,12.02
2022-12-31T12:00:14.164Z,12.48
2022-12-31T12:02:45.711Z,12.70
2022-12-31T12:05:16.728Z,11.38
2022-12-31T12:07:46.288Z,12.35
2022-12-31T12:10:24.193Z,12.55
2022-12-31T12:12:53.945Z,12.27
2022-12-31T12:15:25.545Z,12.43
2022-12-31T12:17:56.058Z,11.82
2022-12-31T12:20:33.603Z,11.88
2022-12-31T12:23:15.249Z,12.07
2022-12-31T12:25:45.522Z,11.43
2022-12-31T12:28:23.653Z,12.57
2022-12-31T12:30:57.397Z,12.02
2022-12-31T12:33:26.011Z,11.93
2022-12-31T12:35:54.223Z,12.75
2022-12-31T12:38:24.839Z,11.90
2022-12-31T12:40:58.282Z,12.38
2022-12-31T12:43:28.445Z,12.38
2022-12-31T12:46:00.195Z,12.10
2022-12-31T12:48:35.973Z,12.00
2022-12-31T12:51:21.990Z,12.52
2022-12-31T12:54:01.483Z,12.32
2022-12-31T12:56:41.237Z,12.52
2022-12-31T12:59:30.707Z,12.07
2022-12-31T13:02:09.073Z,12.45
2022-12-31T13:04:53.603Z,12.65
2022-12-31T13:07:34.357Z,12.10
2022-12-31T13:10:22.744Z,11.73
2022-12-31T13:15:57.694Z,12.35
2022-12-31T13:18:37.453Z,13.02
2022-12-31T13:21:23.835Z,12.13
2022-12-31T13:23:57.918Z,13.07
2022-12-31T13:26:32.616Z,12.35
2022-12-31T13:29:03.469Z,12.05
2022-12-31T13:31:35.637Z,13.00
2022-12-31T13:34:09.465Z,12.52
2022-12-31T13:36:41.736Z,11.65
2022-12-31T13:39:17.528Z,12.27
2022-12-31T13:41:53.520Z,11.98
2022-12-31T13:44:30.185Z,11.55
2022-12-31T13:47:03.625Z,11.63
2022-12-31T13:49:37.214Z,12.45
2022-12-31T13:52:15.395Z,12.65
2022-12-31T13:54:53.450Z,12.38
2022-12-31T13:57:35.960Z,11.52
2022-12-31T14:00:10.485Z,11.82
2022-12-31T14:02:49.075Z,11.68
2022-12-31T14:05:24.784Z,11.13
2022-12-31T14:07:56.315Z,12.00
2022-12-31T14:10:36.039Z,11.55
2022-12-31T14:13:17.131Z,12.35
2022-12-31T14:15:55.479Z,12.02
2022-12-31T14:18:30.995Z,11.77
2022-12-31T14:21:04.680Z,11.05
2022-12-31T14:23:41.485Z,11.13
2022-12-31T14:26:23.934Z,11.65
2022-12-31T14:29:03.412Z,11.25
2022-12-31T14:31:53.137Z,12.23
2022-12-31T14:34:32.088Z,11.70
2022-12-31T14:37:07.959Z,11.60
2022-12-31T14:39:49.720Z,11.27
2022-12-31T14:42:26.589Z,11.20
2022-12-31T14:45:16.239Z,11.45
2022-12-31T14:47:53.454Z,11.48
2022-12-31T14:50:25.274Z,10.90
2022-12-31T14:52:57.173Z,10.82
2022-12-31T14:55:30.291Z,11.48
2022-12-31T14:58:27.204Z,11.80
2022-12-31T15:00:59.769Z,10.77
2022-12-31T15:03:39.983Z,11.60
2022-12-31T15:06:36.901Z,11.13
2022-12-31T15:11:51.340Z,10.75
2022-12-31T15:14:45.058Z,11.23
2022-12-31T15:20:18.565Z,10.80
2022-12-31T15:22:48.681Z,11.75
2022-12-31T15:25:41.418Z,11.43
2022-12-31T15:28:29.513Z,10.90
2022-12-31T15:31:05.194Z,11.35
2022-12-31T15:33:38.809Z,11.20
2022-12-31T15:36:18.788Z,10.80
2022-12-31T15:38:47.759Z,11.00
2022-12-31T15:41:26.521Z,11.65
2022-12-31T15:44:02.889Z,11.13
2022-12-31T15:46:35.416Z,10.77
2022-12-31T15:49:15.649Z,9.98
2022-12-31T15:51:48.429Z,10.00
2022-12-31T15:54:25.332Z,11.02
2022-12-31T15:56:54.756Z,10.65
2022-12-31T15:59:26.146Z,10.73
2022-12-31T16:01:57.063Z,10.57
2022-12-31T16:04:28.871Z,10.63
2022-12-31T16:07:01.699Z,10.35
2022-12-31T16:09:34.080Z,10.98
2022-12-31T16:12:04.914Z,10.20
2022-12-31T16:14:37.544Z,10.13
2022-12-31T16:17:06.508Z,10.13
2022-12-31T16:19:42.501Z,10.52
2022-12-31T16:22:16.581Z,10.48
2022-12-31T16:25:19.506Z,9.95
2022-12-31T16:27:35.651Z,10.10
2022-12-31T16:30:07.988Z,10.38
2022-12-31T16:32:38.464Z,10.05
2022-12-31T16:35:24.632Z,10.48
2022-12-31T16:38:12.805Z,9.68
2022-12-31T16:40:41.973Z,10.05
2022-12-31T16:43:27.042Z,10.25
2022-12-31T16:45:58.594Z,9.60
2022-12-31T16:48:27.680Z,10.32
2022-12-31T16:50:57.932Z,9.68
2022-12-31T16:53:32.650Z,8.85
2022-12-31T16:56:03.914Z,9.70
2022-12-31T16:58:34.535Z,9.90
2022-12-31T17:01:13.511Z,9.52
2022-12-31T17:03:45.841Z,10.43
2022-12-31T17:06:17.219Z,9.52
2022-12-31T17:08:47.281Z,10.25
2022-12-31T17:11:28.302Z,10.13
2022-12-31T17:13:59.598Z,9.35
2022-12-31T17:16:28.936Z,8.90
2022-12-31T17:18:57.189Z,9.48
2022-12-31T17:21:29.375Z,9.55
2022-12-31T17:24:02.134Z,9.57
2022-12-31T17:26:33.551Z,9.80
2022-12-31T17:29:05.230Z,8.85
2022-12-31T17:31:36.411Z,9.65
2022-12-31T17:34:24.585Z,9.55
2022-12-31T17:37:00.956Z,8.98
2022-12-31T17:39:51.016Z,9.30
2022-12-31T17:42:42.902Z,9.07
2022-12-31T17:45:24.825Z,8.45
2022-12-31T17:48:02.260Z,9.60
2022-12-31T17:50:34.754Z,9.20
2022-12-31T17:53:13.429Z,8.90
2022-12-31T17:55:45.606Z,9.20
2022-12-31T17:58:48.020Z,9.00
2022-12-31T18:01:22.488Z,8.95
2022-12-31T18:03:52.159Z,9.18
2022-12-31T18:07:03.015Z,8.77
2022-12-31T18:10:34.220Z,9.27
2022-12-31T18:13:09.502Z,9.02
2022-12-31T18:15:39.236Z,9.77
2022-12-31T18:18:35.464Z,9.73
2022-12-31T18:21:33.993Z,9.40
2022-12-31T18:24:26.145Z,9.43
2022-12-31T18:26:57.782Z,9.73
2022-12-31T18:29:27.720Z,9.40
2022-12-31T18:31:58.541Z,9.93
2022-12-31T18:34:28.327Z,9.68
2022-12-31T18:36:59.123Z,9.27
2022-12-31T18:39:28.539Z,9.57
2022-12-31T18:41:59.064Z,9.98
2022-12-31T18:44:28.357Z,10.00
2022-12-31T18:46:58.303Z,9.77
2022-12-31T18:49:30.242Z,10.13
2022-12-31T18:52:04.026Z,9.95
2022-12-31T18:54:33.501Z,9.73
2022-12-31T18:57:04.324Z,9.70
2022-12-31T18:59:33.632Z,10.05
2022-12-31T19:02:03.565Z,9.75
2022-12-31T19:04:33.382Z,9.73
2022-12-31T19:07:01.466Z,10.07
2022-12-31T19:09:46.314Z,9.98
2022-12-31T19:12:16.889Z,10.05
2022-12-31T19:14:45.570Z,10.07
2022-12-31T19:17:13.714Z,10.68
2022-12-31T19:19:42.622Z,9.98
2022-12-31T19:22:16.169Z,10.15
2022-12-31T19:24:44.533Z,9.88
2022-12-31T19:27:17.364Z,10.63
2022-12-31T19:29:46.057Z,11.02
2022-12-31T19:32:14.287Z,10.90
2022-12-31T19:34:42.658Z,10.88
2022-12-31T19:37:14.870Z,11.10
2022-12-31T19:39:43.207Z,10.45
2022-12-31T19:42:17.166Z,11.20
2022-12-31T19:44:45.484Z,11.75
2022-12-31T19:47:14.102Z,11.27
2022-12-31T19:49:42.340Z,11.50
2022-12-31T19:52:10.457Z,12.52
2022-12-31T19:54:38.700Z,12.10
2022-12-31T19:57:06.739Z,12.73
2022-12-31T19:59:36.636Z,12.55
2022-12-31T20:02:04.921Z,11.95
2022-12-31T20:04:33.093Z,12.40
2022-12-31T20:07:01.384Z,13.15
2022-12-31T20:09:29.799Z,12.18
2022-12-31T20:11:58.021Z,12.57
2022-12-31T20:14:26.618Z,13.65
2022-12-31T20:16:57.099Z,13.68
2022-12-31T20:19:25.218Z,13.10
2022-12-31T20:21:53.843Z,13.00
2022-12-31T20:24:21.990Z,13.32
2022-12-31T20:26:50.440Z,13.10
2022-12-31T20:29:18.785Z,13.70
2022-12-31T20:31:47.366Z,12.80
2022-12-31T20:34:17.039Z,14.10
2022-12-31T20:36:45.267Z,13.60
2022-12-31T20:39:13.406Z,13.25
2022-12-31T20:41:41.512Z,14.50
2022-12-31T20:44:10.147Z,13.95
2022-12-31T20:46:38.274Z,13.82
2022-12-31T20:49:06.953Z,13.95
2022-12-31T20:51:36.688Z,14.40
2022-12-31T20:54:30.900Z,15.00
2022-12-31T21:02:21.032Z,14.60
2022-12-31T21:05:08.138Z,14.80
2022-12-31T21:07:38.692Z,15.07
2022-12-31T21:10:07.609Z,14.60
2022-12-31T21:12:43.822Z,14.65
2022-12-31T21:15:13.026Z,16.10
2022-12-31T21:17:41.337Z,15.40
2022-12-31T21:20:10.473Z,15.73
2022-12-31T21:22:40.179Z,15.65
2022-12-31T21:25:09.003Z,15.63
2022-12-31T21:27:37.398Z,16.17
2022-12-31T21:30:53.590Z,15.82
2022-12-31T21:33:30.294Z,16.67
2022-12-31T21:36:04.084Z,15.93
2022-12-31T21:38:36.953Z,16.45
2022-12-31T21:41:37.286Z,16.47
2022-12-31T21:44:05.533Z,15.85
2022-12-31T21:47:34.702Z,16.38
2022-12-31T21:50:18.309Z,16.65
2022-12-31T21:52:58.364Z,16.77
2022-12-31T21:55:58.886Z,17.35
2022-12-31T21:58:40.000Z,17.33
2022-12-31T22:01:39.652Z,16.08
2022-12-31T22:05:01.992Z,16.23
2022-12-31T22:07:30.853Z,16.13
2022-12-31T22:09:59.032Z,17.70
2022-12-31T22:12:28.670Z,17.10
2022-12-31T22:15:14.722Z,17.30
2022-12-31T22:17:44.495Z,16.73
2022-12-31T22:20:28.846Z,17.45
2022-12-31T22:22:57.434Z,17.13
2022-12-31T22:25:25.753Z,16.95
2022-12-31T22:28:27.691Z,17.77
2022-12-31T22:30:48.779Z,17.85
2022-12-31T22:33:16.956Z,17.42
2022-12-31T22:35:57.947Z,16.98
2022-12-31T22:38:26.448Z,17.73
2022-12-31T22:41:02.972Z,17.50
2022-12-31T22:43:33.604Z,17.35
2022-12-31T22:46:08.593Z,17.73
2022-12-31T22:48:36.843Z,17.20
2022-12-31T22:51:05.382Z,17.77
2022-12-31T22:53:38.555Z,17.73
2022-12-31T22:58:36.622Z,16.77
2022-12-31T23:01:07.050Z,17.80
2022-12-31T23:03:35.519Z,18.98
2022-12-31T23:06:03.738Z,19.23
2022-12-31T23:08:32.191Z,18.20
2022-12-31T23:11:05.528Z,18.63
2022-12-31T23:13:57.504Z,18.33
2022-12-31T23:16:44.268Z,18.77
2022-12-31T23:19:30.112Z,19.73
2022-12-31T23:22:16.475Z,19.27
2022-12-31T23:24:44.868Z,19.50
2022-12-31T23:27:13.244Z,20.25
2022-12-31T23:29:47.107Z,19.60
2022-12-31T23:32:16.577Z,20.02
2022-12-31T23:34:45.652Z,19.92
2022-12-31T23:37:14.750Z,21.02
2022-12-31T23:39:43.671Z,20.17
2022-12-31T23:42:12.038Z,20.52
2022-12-31T23:44:42.003Z,20.40
2022-12-31T23:47:10.203Z,20.20
2022-12-31T23:49:38.352Z,20.50
2022-12-31T23:52:06.656Z,19.92
2022-12-31T23:54:35.092Z,20.23
2022-12-31T23:57:03.363Z,19.67
2022-12-31T23:59:31.721Z,20.40
